createdAt,value
2023-01-13T00:02:21.231Z,1.60
2023-01-13T00:04:47.607Z,1.50
2023-01-13T00:07:14.308Z,1.60
2023-01-13T00:09:40.789Z,1.52
2023-01-13T00:12:07.254Z,1.53
2023-01-13T00:14:34.482Z,1.87
2023-01-13T00:17:00.922Z,1.50
2023-01-13T00:19:27.274Z,1.40
2023-01-13T00:21:53.662Z,1.50
2023-01-13T00:24:19.950Z,1.52
2023-01-13T00:26:46.839Z,1.50
2023-01-13T00:29:13.266Z,1.38
2023-01-13T00:31:39.605Z,1.60
2023-01-13T00:34:05.935Z,1.45
2023-01-13T00:36:32.314Z,1.45
2023-01-13T00:38:58.936Z,1.48
2023-01-13T00:41:26.301Z,1.40
2023-01-13T00:43:52.834Z,1.50
2023-01-13T00:46:20.336Z,1.30
2023-01-13T00:48:47.112Z,1.58
2023-01-13T00:51:16.404Z,1.58
2023-01-13T00:53:44.317Z,1.30
2023-01-13T00:58:48.505Z,1.27
2023-01-13T01:01:17.183Z,1.42
2023-01-13T01:03:43.734Z,1.40
2023-01-13T01:06:13.473Z,1.40
2023-01-13T01:08:39.934Z,1.40
2023-01-13T01:11:08.835Z,1.35
2023-01-13T01:13:36.026Z,1.20
2023-01-13T01:16:07.556Z,1.20
2023-01-13T01:18:34.366Z,1.30
2023-01-13T01:21:00.749Z,1.40
2023-01-13T01:23:28.653Z,1.40
2023-01-13T01:25:55.219Z,1.20
2023-01-13T01:28:21.562Z,1.27
2023-01-13T01:30:47.938Z,1.60
2023-01-13T01:33:14.286Z,1.50
2023-01-13T01:35:40.820Z,1.40
2023-01-13T01:38:07.281Z,1.47
2023-01-13T01:40:33.625Z,1.50
2023-01-13T01:43:19.911Z,1.50
2023-01-13T01:45:46.415Z,1.30
2023-01-13T01:48:13.054Z,1.00
2023-01-13T01:50:40.119Z,1.42
2023-01-13T01:53:10.252Z,1.35
2023-01-13T01:55:37.066Z,1.30
2023-01-13T01:58:13.053Z,1.33
2023-01-13T02:00:39.472Z,1.25
2023-01-13T02:03:06.707Z,1.35
2023-01-13T02:05:34.323Z,1.40
2023-01-13T02:08:01.235Z,1.13
2023-01-13T02:10:28.847Z,1.20
2023-01-13T02:12:56.687Z,1.23
2023-01-13T02:15:27.785Z,1.13
2023-01-13T02:26:22.273Z,1.40
2023-01-13T02:29:28.580Z,1.10
2023-01-13T02:31:58.872Z,1.20
2023-01-13T02:34:30.473Z,1.27
2023-01-13T02:36:59.941Z,1.20
2023-01-13T02:39:30.157Z,1.20
2023-01-13T02:42:24.331Z,1.30
2023-01-13T02:44:53.673Z,1.05
2023-01-13T02:47:28.507Z,1.10
2023-01-13T02:50:03.844Z,1.10
2023-01-13T02:52:39.741Z,1.05
2023-01-13T02:55:08.841Z,1.17
2023-01-13T02:57:36.530Z,1.20
2023-01-13T03:00:03.928Z,1.30
2023-01-13T03:02:30.236Z,1.30
2023-01-13T03:04:57.637Z,1.30
2023-01-13T03:07:43.837Z,1.30
2023-01-13T03:10:19.117Z,1.05
2023-01-13T03:18:19.713Z,1.10
2023-01-13T03:20:54.796Z,1.10
2023-01-13T03:23:26.009Z,1.05
2023-01-13T03:25:55.469Z,1.00
2023-01-13T03:28:25.657Z,1.00
2023-01-13T03:30:54.517Z,1.10
2023-01-13T03:33:24.663Z,1.17
2023-01-13T03:35:52.759Z,1.15
2023-01-13T03:38:23.115Z,1.20
2023-01-13T03:40:51.288Z,0.90
2023-01-13T03:43:42.405Z,1.20
2023-01-13T03:46:11.801Z,1.15
2023-01-13T03:48:40.277Z,1.00
2023-01-13T03:51:08.657Z,1.05
2023-01-13T03:53:38.450Z,1.00
2023-01-13T03:56:10.242Z,0.93
2023-01-13T03:58:40.476Z,0.95
2023-01-13T04:01:26.827Z,0.98
2023-01-13T04:03:57.346Z,1.02
2023-01-13T04:06:26.650Z,1.08
2023-01-13T04:08:55.519Z,0.90
2023-01-13T04:11:27.989Z,1.20
2023-01-13T04:13:55.111Z,1.15
2023-01-13T04:16:21.371Z,1.17
2023-01-13T04:18:49.761Z,1.00
2023-01-13T04:21:16.044Z,1.15
2023-01-13T04:23:42.292Z,1.00
2023-01-13T04:26:08.596Z,1.20
2023-01-13T04:28:34.843Z,1.10
2023-01-13T04:31:01.355Z,1.00
2023-01-13T04:33:27.773Z,1.10
2023-01-13T04:35:54.359Z,1.00
2023-01-13T04:38:21.359Z,1.00
2023-01-13T04:40:47.735Z,0.95
2023-01-13T04:43:14.835Z,0.80
2023-01-13T04:45:41.761Z,1.08
2023-01-13T04:48:08.068Z,1.00
2023-01-13T04:50:34.809Z,0.90
2023-01-13T04:53:01.116Z,1.20
2023-01-13T04:55:27.778Z,0.90
2023-01-13T04:57:54.091Z,1.08
2023-01-13T05:00:21.477Z,1.00
2023-01-13T05:02:51.299Z,0.90
2023-01-13T05:05:17.607Z,0.90
2023-01-13T05:07:43.888Z,0.80
2023-01-13T05:10:10.514Z,0.90
2023-01-13T05:12:56.843Z,0.90
2023-01-13T05:15:43.097Z,0.90
2023-01-13T05:18:09.504Z,1.05
2023-01-13T05:20:35.911Z,1.00
2023-01-13T05:23:22.992Z,1.00
2023-01-13T05:25:49.492Z,0.90
2023-01-13T05:28:16.138Z,1.02
2023-01-13T05:30:43.575Z,0.90
2023-01-13T05:33:10.371Z,0.95
2023-01-13T05:35:38.316Z,0.90
2023-01-13T05:38:04.556Z,0.90
2023-01-13T05:40:50.740Z,0.90
2023-01-13T05:43:19.085Z,0.95
2023-01-13T05:45:46.137Z,1.00
2023-01-13T05:48:12.725Z,0.88
2023-01-13T05:50:39.342Z,1.20
2023-01-13T05:53:05.842Z,1.10
2023-01-13T05:55:32.290Z,0.80
2023-01-13T05:57:58.559Z,0.90
2023-01-13T06:00:24.960Z,0.97
2023-01-13T06:02:51.877Z,0.97
2023-01-13T06:05:18.364Z,0.90
2023-01-13T06:07:44.685Z,0.85
2023-01-13T06:10:11.124Z,0.80
2023-01-13T06:12:37.360Z,1.08
2023-01-13T06:15:03.744Z,1.00
2023-01-13T06:17:30.033Z,0.93
2023-01-13T06:19:56.386Z,0.90
2023-01-13T06:22:24.149Z,0.90
2023-01-13T06:24:52.780Z,0.98
2023-01-13T06:27:19.937Z,1.00
2023-01-13T06:29:46.345Z,0.90
2023-01-13T06:32:16.278Z,1.00
2023-01-13T06:34:44.431Z,0.90
2023-01-13T06:37:12.580Z,0.70
2023-01-13T06:39:39.706Z,1.23
2023-01-13T06:42:26.419Z,1.00
2023-01-13T06:44:53.046Z,0.90
2023-01-13T06:47:21.502Z,0.90
2023-01-13T06:49:48.203Z,1.00
2023-01-13T06:52:14.685Z,0.77
2023-01-13T06:54:40.951Z,0.90
2023-01-13T06:57:07.278Z,0.80
2023-01-13T06:59:35.588Z,0.80
2023-01-13T07:02:02.505Z,1.00
2023-01-13T07:04:28.927Z,0.80
2023-01-13T07:06:55.155Z,0.93
2023-01-13T07:09:21.438Z,1.05
2023-01-13T07:11:47.767Z,0.90
2023-01-13T07:14:33.967Z,0.80
2023-01-13T07:17:00.792Z,0.80
2023-01-13T07:19:27.137Z,0.80
2023-01-13T07:21:53.441Z,0.80
2023-01-13T07:24:23.849Z,1.00
2023-01-13T07:26:51.242Z,0.90
2023-01-13T07:29:17.617Z,1.40
2023-01-13T07:31:44.109Z,0.90
2023-01-13T07:34:10.415Z,1.20
2023-01-13T07:36:37.095Z,0.90
2023-01-13T07:39:03.619Z,1.00
2023-01-13T07:41:49.834Z,1.40
2023-01-13T07:44:16.108Z,1.00
2023-01-13T07:46:42.478Z,1.00
2023-01-13T07:49:28.423Z,1.33
2023-01-13T07:51:54.673Z,1.33
2023-01-13T07:54:25.520Z,1.40
2023-01-13T07:56:57.959Z,1.20
2023-01-13T07:59:24.449Z,0.90
2023-01-13T08:01:52.335Z,0.90
2023-01-13T08:04:18.815Z,1.02
2023-01-13T08:06:46.300Z,0.80
2023-01-13T08:09:12.633Z,1.00
2023-01-13T08:11:38.940Z,0.95
2023-01-13T08:14:05.282Z,0.90
2023-01-13T08:16:33.308Z,0.98
2023-01-13T08:18:59.596Z,1.20
2023-01-13T08:21:25.861Z,1.02
2023-01-13T08:23:52.150Z,1.13
2023-01-13T08:26:18.674Z,1.10
2023-01-13T08:28:45.239Z,1.25
2023-01-13T08:31:12.674Z,1.60
2023-01-13T08:33:40.063Z,1.23
2023-01-13T08:36:07.776Z,1.30
2023-01-13T08:38:34.474Z,1.42
2023-01-13T08:41:01.395Z,1.50
2023-01-13T08:43:27.808Z,1.55
2023-01-13T08:45:59.213Z,1.23
2023-01-13T08:48:29.780Z,1.40
2023-01-13T08:51:02.069Z,1.20
2023-01-13T08:53:28.352Z,1.10
2023-01-13T08:55:54.666Z,1.20
2023-01-13T08:58:20.932Z,1.10
2023-01-13T09:00:52.907Z,1.23
2023-01-13T09:03:26.619Z,1.50
2023-01-13T09:05:53.003Z,1.38
2023-01-13T09:08:19.561Z,1.25
2023-01-13T09:10:45.797Z,1.33
2023-01-13T09:13:13.028Z,1.17
2023-01-13T09:15:41.008Z,1.15
2023-01-13T09:18:07.351Z,1.33
2023-01-13T09:20:33.781Z,1.55
2023-01-13T09:23:00.303Z,1.27
2023-01-13T09:25:26.577Z,1.20
2023-01-13T09:27:53.076Z,1.50
2023-01-13T09:30:19.437Z,1.17
2023-01-13T09:32:46.366Z,1.20
2023-01-13T09:35:12.855Z,1.30
2023-01-13T09:37:40.442Z,1.30
2023-01-13T09:40:09.547Z,1.40
2023-01-13T09:43:00.563Z,1.50
2023-01-13T09:45:31.628Z,1.20
2023-01-13T09:48:01.816Z,1.40
2023-01-13T09:50:36.546Z,1.40
2023-01-13T09:53:03.178Z,1.48
2023-01-13T09:55:33.182Z,1.17
2023-01-13T09:58:02.008Z,1.40
2023-01-13T10:00:35.698Z,1.50
2023-01-13T10:08:25.840Z,1.40
2023-01-13T10:10:55.876Z,1.10
2023-01-13T10:13:24.178Z,1.20
2023-01-13T10:21:43.993Z,1.00
2023-01-13T10:24:30.228Z,0.93
2023-01-13T10:27:07.468Z,1.20
2023-01-13T10:29:35.959Z,1.20
2023-01-13T10:32:02.348Z,1.02
2023-01-13T10:34:29.230Z,1.20
2023-01-13T10:39:41.485Z,1.20
2023-01-13T10:42:13.152Z,1.10
2023-01-13T10:44:46.971Z,1.20
2023-01-13T10:47:20.096Z,1.10
2023-01-13T10:49:58.908Z,1.10
2023-01-13T10:52:26.725Z,0.95
2023-01-13T10:54:53.818Z,1.15
2023-01-13T10:59:56.604Z,1.33
2023-01-13T11:02:28.898Z,1.45
2023-01-13T11:07:34.788Z,1.40
2023-01-13T11:12:58.423Z,1.52
2023-01-13T11:15:31.715Z,1.30
2023-01-13T11:18:00.742Z,1.40
2023-01-13T11:20:31.729Z,1.40
2023-01-13T11:22:59.306Z,1.15
2023-01-13T11:25:34.460Z,1.17
2023-01-13T11:28:05.396Z,1.02
2023-01-13T11:30:37.564Z,1.17
2023-01-13T11:33:10.959Z,1.48
2023-01-13T11:35:41.738Z,1.35
2023-01-13T11:38:13.630Z,1.30
2023-01-13T11:40:42.365Z,1.40
2023-01-13T11:43:28.679Z,2.13
2023-01-13T11:45:57.327Z,1.87
2023-01-13T11:48:26.308Z,1.80
2023-01-13T11:51:02.805Z,1.67
2023-01-13T11:53:34.786Z,1.75
2023-01-13T11:56:23.856Z,1.50
2023-01-13T11:59:10.188Z,2.17
2023-01-13T12:04:24.044Z,1.60
2023-01-13T12:06:54.353Z,1.60
2023-01-13T12:09:27.966Z,1.40
2023-01-13T12:12:22.402Z,1.45
2023-01-13T12:15:02.205Z,1.33
2023-01-13T12:17:34.382Z,1.20
2023-01-13T12:20:12.379Z,1.05
2023-01-13T12:22:39.193Z,1.20
2023-01-13T12:25:17.889Z,1.45
2023-01-13T12:27:47.824Z,1.45
2023-01-13T12:30:23.721Z,1.20
2023-01-13T12:32:50.525Z,1.30
2023-01-13T12:35:28.618Z,1.30
2023-01-13T12:38:04.288Z,1.40
2023-01-13T12:40:37.849Z,1.43
2023-01-13T12:45:40.801Z,1.20
2023-01-13T12:48:07.230Z,1.30
2023-01-13T12:53:30.420Z,1.70
2023-01-13T12:56:16.614Z,1.20
2023-01-13T12:58:42.873Z,1.10
2023-01-13T13:01:14.523Z,2.60
2023-01-13T13:03:41.141Z,1.92
2023-01-13T13:06:14.206Z,2.20
2023-01-13T13:09:03.307Z,1.42
2023-01-13T13:14:13.191Z,1.40
2023-01-13T13:16:55.140Z,1.70
2023-01-13T13:27:46.598Z,1.40
2023-01-13T13:30:29.932Z,3.20
2023-01-13T13:33:16.206Z,3.70
2023-01-13T13:36:02.384Z,2.28
2023-01-13T13:38:56.698Z,2.00
2023-01-13T13:41:44.555Z,2.90
2023-01-13T13:44:34.301Z,3.42
2023-01-13T13:47:02.178Z,3.95
2023-01-13T13:49:48.791Z,3.15
2023-01-13T13:54:52.724Z,4.47
2023-01-13T13:57:21.247Z,4.05
2023-01-13T13:59:50.516Z,4.05
2023-01-13T14:02:19.864Z,3.55
2023-01-13T14:04:46.323Z,3.70
2023-01-13T14:07:17.887Z,3.60
2023-01-13T14:09:45.490Z,2.65
2023-01-13T14:12:17.067Z,3.47
2023-01-13T14:14:43.995Z,3.40
2023-01-13T14:17:27.569Z,3.00
2023-01-13T14:22:32.353Z,3.05
2023-01-13T14:25:00.854Z,2.72
2023-01-13T14:27:28.427Z,2.80
2023-01-13T14:29:57.228Z,2.67
2023-01-13T14:32:26.108Z,2.55
2023-01-13T14:34:52.393Z,2.70
2023-01-13T14:37:32.445Z,3.05
2023-01-13T14:39:58.802Z,2.70
2023-01-13T14:42:26.763Z,2.75
2023-01-13T14:44:53.031Z,2.97
2023-01-13T14:47:22.872Z,2.57
2023-01-13T14:50:09.053Z,2.72
2023-01-13T14:52:36.579Z,2.72
2023-01-13T14:57:43.463Z,2.58
2023-01-13T15:00:26.574Z,2.63
2023-01-13T15:05:31.788Z,2.85
2023-01-13T15:08:00.299Z,2.83
2023-01-13T15:10:29.257Z,2.70
2023-01-13T15:12:57.042Z,2.00
2023-01-13T15:18:01.363Z,2.90
2023-01-13T15:20:28.194Z,2.92
2023-01-13T15:22:55.531Z,2.55
2023-01-13T15:25:21.852Z,2.72
2023-01-13T15:27:53.671Z,2.58
2023-01-13T15:30:21.455Z,2.42
2023-01-13T15:32:47.790Z,2.53
2023-01-13T15:35:14.609Z,2.53
2023-01-13T15:37:41.391Z,2.60
2023-01-13T15:40:18.259Z,2.25
2023-01-13T15:43:04.605Z,2.70
2023-01-13T15:45:51.949Z,2.25
2023-01-13T15:48:20.154Z,2.72
2023-01-13T15:50:46.645Z,2.47
2023-01-13T15:53:14.436Z,2.53
2023-01-13T15:55:42.438Z,2.60
2023-01-13T15:58:10.570Z,2.55
2023-01-13T16:00:36.970Z,2.42
2023-01-13T16:03:03.694Z,2.30
2023-01-13T16:05:30.081Z,2.58
2023-01-13T16:07:56.389Z,2.45
2023-01-13T16:10:25.698Z,2.20
2023-01-13T16:12:52.884Z,2.55
2023-01-13T16:15:21.815Z,2.47
2023-01-13T16:17:51.580Z,2.40
2023-01-13T16:20:18.455Z,2.53
2023-01-13T16:22:44.787Z,2.60
2023-01-13T16:25:15.403Z,2.28
2023-01-13T16:27:41.901Z,2.00
2023-01-13T16:30:16.504Z,2.40
2023-01-13T16:32:42.760Z,2.47
2023-01-13T16:35:09.851Z,2.42
2023-01-13T16:37:36.212Z,2.10
2023-01-13T16:40:02.916Z,2.07
2023-01-13T16:42:29.992Z,2.45
2023-01-13T16:45:00.742Z,2.28
2023-01-13T16:47:27.089Z,2.33
2023-01-13T16:49:53.314Z,2.38
2023-01-13T16:52:20.125Z,1.80
2023-01-13T16:54:46.369Z,2.35
2023-01-13T16:57:13.354Z,2.47
2023-01-13T16:59:39.996Z,2.25
2023-01-13T17:02:11.357Z,2.10
2023-01-13T17:04:41.588Z,2.10
2023-01-13T17:07:09.289Z,2.03
2023-01-13T17:09:35.535Z,2.25
2023-01-13T17:12:05.589Z,2.10
2023-01-13T17:14:31.847Z,2.00
2023-01-13T17:16:58.227Z,2.38
2023-01-13T17:19:24.911Z,2.05
2023-01-13T17:21:51.319Z,2.00
2023-01-13T17:24:17.610Z,1.95
2023-01-13T17:26:46.786Z,1.92
2023-01-13T17:29:14.312Z,2.35
2023-01-13T17:31:40.644Z,2.08
2023-01-13T17:34:06.931Z,2.05
2023-01-13T17:36:33.320Z,2.00
2023-01-13T17:38:59.560Z,1.90
2023-01-13T17:41:26.339Z,2.10
2023-01-13T17:43:53.229Z,2.25
2023-01-13T17:46:20.038Z,2.25
2023-01-13T17:48:46.762Z,2.00
2023-01-13T17:51:13.772Z,2.20
2023-01-13T17:53:40.039Z,2.30
2023-01-13T17:56:06.896Z,1.90
2023-01-13T17:58:33.572Z,1.98
2023-01-13T18:00:59.849Z,1.90
2023-01-13T18:03:26.235Z,2.13
2023-01-13T18:05:52.484Z,2.20
2023-01-13T18:08:18.921Z,2.20
2023-01-13T18:10:45.269Z,1.90
2023-01-13T18:13:11.602Z,2.08
2023-01-13T18:15:37.855Z,2.00
2023-01-13T18:18:04.135Z,2.17
2023-01-13T18:20:50.310Z,2.22
2023-01-13T18:23:38.514Z,2.30
2023-01-13T18:26:40.520Z,2.10
2023-01-13T18:29:09.832Z,1.90
2023-01-13T18:31:36.050Z,2.17
2023-01-13T18:34:02.322Z,2.13
2023-01-13T18:36:28.579Z,2.22
2023-01-13T18:38:55.192Z,2.00
2023-01-13T18:41:41.371Z,2.00
2023-01-13T18:44:07.750Z,2.00
2023-01-13T18:46:34.077Z,2.00
2023-01-13T18:49:00.330Z,1.92
2023-01-13T18:51:26.607Z,2.10
2023-01-13T18:53:53.136Z,2.10
2023-01-13T18:56:19.647Z,1.80
2023-01-13T18:58:50.952Z,2.27
2023-01-13T19:01:21.600Z,2.20
2023-01-13T19:03:48.910Z,2.33
2023-01-13T19:06:15.244Z,2.05
2023-01-13T19:08:41.927Z,2.17
2023-01-13T19:11:08.208Z,1.90
2023-01-13T19:13:38.394Z,2.10
2023-01-13T19:16:06.687Z,2.10
2023-01-13T19:18:33.579Z,2.00
2023-01-13T19:21:01.202Z,2.03
2023-01-13T19:23:27.468Z,2.00
2023-01-13T19:25:53.691Z,1.90
2023-01-13T19:28:21.236Z,2.00
2023-01-13T19:30:47.587Z,1.90
2023-01-13T19:33:13.930Z,2.00
2023-01-13T19:35:40.172Z,1.88
2023-01-13T19:38:06.445Z,1.97
2023-01-13T19:40:32.676Z,2.27
2023-01-13T19:43:18.894Z,2.10
2023-01-13T19:45:45.211Z,1.90
2023-01-13T19:48:18.753Z,1.70
2023-01-13T19:50:45.038Z,1.80
2023-01-13T19:53:17.017Z,2.00
2023-01-13T19:55:44.437Z,2.20
2023-01-13T19:58:11.224Z,2.03
2023-01-13T20:00:45.886Z,1.95
2023-01-13T20:03:13.094Z,2.10
2023-01-13T20:05:39.403Z,1.80
2023-01-13T20:08:05.804Z,1.90
2023-01-13T20:10:32.211Z,1.97
2023-01-13T20:12:58.856Z,2.20
2023-01-13T20:15:25.100Z,1.98
2023-01-13T20:17:51.370Z,1.95
2023-01-13T20:20:19.579Z,1.95
2023-01-13T20:22:46.160Z,2.00
2023-01-13T20:25:15.902Z,1.88
2023-01-13T20:27:42.372Z,2.10
2023-01-13T20:30:12.436Z,2.10
2023-01-13T20:32:38.997Z,1.92
2023-01-13T20:35:06.534Z,2.15
2023-01-13T20:37:33.557Z,2.05
2023-01-13T20:40:00.984Z,2.20
2023-01-13T20:42:28.303Z,2.20
2023-01-13T20:44:54.783Z,2.10
2023-01-13T20:47:21.369Z,2.08
2023-01-13T20:49:47.702Z,2.20
2023-01-13T20:52:14.194Z,1.90
2023-01-13T20:54:41.040Z,2.03
2023-01-13T20:57:08.950Z,2.03
2023-01-13T20:59:36.000Z,2.17
2023-01-13T21:02:02.525Z,2.13
2023-01-13T21:04:28.951Z,1.90
2023-01-13T21:06:55.487Z,1.90
2023-01-13T21:09:23.433Z,2.00
2023-01-13T21:12:10.082Z,1.90
2023-01-13T21:14:56.383Z,2.00
2023-01-13T21:17:42.692Z,1.87
2023-01-13T21:20:10.180Z,2.10
2023-01-13T21:22:36.465Z,1.90
2023-01-13T21:25:03.862Z,1.97
2023-01-13T21:27:30.566Z,2.07
2023-01-13T21:29:56.995Z,2.10
2023-01-13T21:32:23.701Z,2.08
2023-01-13T21:34:50.066Z,1.95
2023-01-13T21:37:17.452Z,1.90
2023-01-13T21:39:44.011Z,2.00
2023-01-13T21:42:33.313Z,2.10
2023-01-13T21:45:19.682Z,2.00
2023-01-13T21:47:49.395Z,2.03
2023-01-13T21:50:18.511Z,1.90
2023-01-13T21:52:45.302Z,1.95
2023-01-13T21:55:27.953Z,1.80
2023-01-13T21:57:56.699Z,2.00
2023-01-13T22:00:24.757Z,1.70
2023-01-13T22:02:52.141Z,1.70
2023-01-13T22:05:19.636Z,2.00
2023-01-13T22:07:46.026Z,1.77
2023-01-13T22:10:17.123Z,2.00
2023-01-13T22:12:43.831Z,1.90
2023-01-13T22:15:12.157Z,2.08
2023-01-13T22:17:39.272Z,2.03
2023-01-13T22:20:05.832Z,1.90
2023-01-13T22:22:35.879Z,2.10
2023-01-13T22:25:02.939Z,2.07
2023-01-13T22:27:30.035Z,2.00
2023-01-13T22:29:57.185Z,2.17
2023-01-13T22:32:23.528Z,1.92
2023-01-13T22:34:49.854Z,2.08
2023-01-13T22:37:16.157Z,1.83
2023-01-13T22:39:42.503Z,1.83
2023-01-13T22:42:09.336Z,1.90
2023-01-13T22:44:35.576Z,1.65
2023-01-13T22:47:01.817Z,1.77
2023-01-13T22:49:28.087Z,1.90
2023-01-13T22:51:54.366Z,1.70
2023-01-13T22:54:20.775Z,1.90
2023-01-13T22:56:47.019Z,1.95
2023-01-13T22:59:15.143Z,2.10
2023-01-13T23:01:41.571Z,1.88
2023-01-13T23:04:09.689Z,1.80
2023-01-13T23:06:36.248Z,1.80
2023-01-13T23:09:02.529Z,1.70
2023-01-13T23:11:29.750Z,1.83
2023-01-13T23:13:57.835Z,1.75
2023-01-13T23:16:24.290Z,1.83
2023-01-13T23:18:50.946Z,1.87
2023-01-13T23:21:18.953Z,1.90
2023-01-13T23:23:45.627Z,1.80
2023-01-13T23:26:12.267Z,1.70
2023-01-13T23:28:38.937Z,2.20
2023-01-13T23:31:06.710Z,1.73
2023-01-13T23:33:33.008Z,1.75
2023-01-13T23:36:01.192Z,1.92
2023-01-13T23:38:27.927Z,2.10
2023-01-13T23:40:54.382Z,1.80
2023-01-13T23:43:21.139Z,1.70
2023-01-13T23:45:47.455Z,1.70
2023-01-13T23:48:13.861Z,1.73
2023-01-13T23:50:40.536Z,1.90
2023-01-13T23:53:07.162Z,1.60
2023-01-13T23:55:33.566Z,1.67
2023-01-13T23:57:59.807Z,1.90
